createdAt,value
2022-12-04T00:01:30.493Z,14.63
2022-12-04T00:04:00.765Z,14.07
2022-12-04T00:06:30.395Z,15.88
2022-12-04T00:08:58.859Z,14.82
2022-12-04T00:11:30.151Z,13.75
2022-12-04T00:14:04.608Z,14.45
2022-12-04T00:16:36.626Z,14.45
2022-12-04T00:19:05.387Z,14.60
2022-12-04T00:21:33.986Z,15.45
2022-12-04T00:24:02.158Z,16.15
2022-12-04T00:26:32.234Z,14.23
2022-12-04T00:29:00.864Z,14.80
2022-12-04T00:31:31.502Z,15.15
2022-12-04T00:34:02.206Z,14.95
2022-12-04T00:36:31.626Z,14.45
2022-12-04T00:39:01.259Z,14.27
2022-12-04T00:41:31.313Z,14.00
2022-12-04T00:43:59.707Z,14.50
2022-12-04T00:46:28.547Z,13.02
2022-12-04T00:48:56.952Z,15.38
2022-12-04T00:51:26.889Z,13.68
2022-12-04T00:53:55.001Z,11.82
2022-12-04T00:56:24.811Z,13.65
2022-12-04T00:58:53.523Z,14.05
2022-12-04T01:01:23.017Z,14.98
2022-12-04T01:03:51.511Z,14.57
2022-12-04T01:06:22.418Z,15.05
2022-12-04T01:08:53.244Z,13.38
2022-12-04T01:11:22.838Z,13.73
2022-12-04T01:13:50.885Z,13.68
2022-12-04T01:16:21.402Z,13.45
2022-12-04T01:18:49.756Z,13.60
2022-12-04T01:21:18.167Z,13.23
2022-12-04T01:23:46.477Z,11.38
2022-12-04T01:26:15.923Z,12.95
2022-12-04T01:28:44.154Z,12.02
2022-12-04T01:31:13.807Z,12.02
2022-12-04T01:33:42.785Z,12.90
2022-12-04T01:36:13.117Z,13.15
2022-12-04T01:38:42.054Z,13.43
2022-12-04T01:41:11.496Z,13.38
2022-12-04T01:43:41.735Z,12.40
2022-12-04T01:46:10.708Z,12.20
2022-12-04T01:48:41.934Z,11.13
2022-12-04T01:51:16.424Z,12.63
2022-12-04T01:53:48.007Z,12.48
2022-12-04T01:56:17.229Z,12.20
2022-12-04T01:58:52.280Z,12.55
2022-12-04T02:03:48.377Z,12.15
2022-12-04T02:06:16.512Z,11.73
2022-12-04T02:08:44.666Z,12.18
2022-12-04T02:11:25.034Z,11.30
2022-12-04T02:14:03.610Z,9.88
2022-12-04T02:16:39.722Z,10.95
2022-12-04T02:19:29.467Z,10.18
2022-12-04T02:22:00.503Z,11.43
2022-12-04T02:24:48.415Z,11.98
2022-12-04T02:27:29.548Z,12.25
2022-12-04T02:30:03.760Z,12.63
2022-12-04T02:32:40.453Z,11.70
2022-12-04T02:35:17.177Z,11.38
2022-12-04T02:37:48.653Z,12.32
2022-12-04T02:40:25.246Z,11.60
2022-12-04T02:42:59.288Z,12.02
2022-12-04T02:45:33.405Z,12.60
2022-12-04T02:48:05.060Z,9.83
2022-12-04T02:50:36.314Z,11.35
2022-12-04T02:53:09.417Z,11.48
2022-12-04T02:55:43.337Z,11.40
2022-12-04T02:58:15.814Z,11.68
2022-12-04T03:00:48.896Z,11.73
2022-12-04T03:03:21.446Z,12.18
2022-12-04T03:05:56.580Z,10.95
2022-12-04T03:10:57.905Z,11.75
2022-12-04T03:13:30.028Z,11.63
2022-12-04T03:16:04.947Z,13.15
2022-12-04T03:18:38.561Z,12.48
2022-12-04T03:21:10.885Z,13.23
2022-12-04T03:23:45.337Z,11.02
2022-12-04T03:26:23.663Z,10.90
2022-12-04T03:28:57.088Z,11.57
2022-12-04T03:31:36.203Z,13.32
2022-12-04T03:34:07.211Z,11.77
2022-12-04T03:36:39.553Z,11.27
2022-12-04T03:39:17.764Z,12.68
2022-12-04T03:41:55.682Z,12.48
2022-12-04T03:44:27.045Z,12.60
2022-12-04T03:47:04.575Z,12.85
2022-12-04T03:49:39.345Z,12.05
2022-12-04T03:52:15.377Z,12.07
2022-12-04T03:54:48.907Z,11.75
2022-12-04T03:57:21.077Z,12.55
2022-12-04T03:59:56.118Z,11.73
2022-12-04T04:02:30.180Z,12.73
2022-12-04T04:05:01.002Z,12.52
2022-12-04T04:07:35.837Z,12.57
2022-12-04T04:12:42.242Z,11.20
2022-12-04T04:15:31.477Z,11.93
2022-12-04T04:18:20.698Z,12.02
2022-12-04T04:21:11.505Z,14.15
2022-12-04T04:24:03.308Z,12.80
2022-12-04T04:26:36.477Z,12.07
2022-12-04T04:29:04.740Z,12.05
2022-12-04T04:31:39.254Z,11.88
2022-12-04T04:34:18.278Z,9.95
2022-12-04T04:36:55.181Z,12.55
2022-12-04T04:39:31.165Z,12.52
2022-12-04T04:42:04.384Z,11.93
2022-12-04T04:44:42.251Z,11.70
2022-12-04T04:47:17.316Z,12.27
2022-12-04T04:49:48.466Z,11.60
2022-12-04T04:52:21.273Z,12.32
2022-12-04T04:54:49.434Z,13.85
2022-12-04T04:57:27.532Z,13.13
2022-12-04T04:59:55.868Z,12.80
2022-12-04T05:02:25.849Z,13.20
2022-12-04T05:04:55.736Z,11.25
2022-12-04T05:07:23.933Z,10.52
2022-12-04T05:09:51.940Z,12.00
2022-12-04T05:12:20.155Z,10.65
2022-12-04T05:14:48.796Z,11.55
2022-12-04T05:17:17.166Z,10.88
2022-12-04T05:19:57.874Z,10.30
2022-12-04T05:22:30.272Z,10.80
2022-12-04T05:24:58.833Z,11.38
2022-12-04T05:27:28.621Z,11.13
2022-12-04T05:29:58.492Z,11.30
2022-12-04T05:32:28.756Z,10.55
2022-12-04T05:34:58.008Z,10.60
2022-12-04T05:37:27.452Z,10.77
2022-12-04T05:39:55.777Z,12.02
2022-12-04T05:42:24.255Z,11.15
2022-12-04T05:44:52.299Z,11.15
2022-12-04T05:47:20.393Z,11.27
2022-12-04T05:49:48.456Z,9.90
2022-12-04T05:52:16.863Z,10.98
2022-12-04T05:54:47.453Z,9.45
2022-12-04T05:57:15.621Z,10.07
2022-12-04T05:59:43.647Z,11.05
2022-12-04T06:02:11.664Z,10.25
2022-12-04T06:04:39.750Z,11.77
2022-12-04T06:07:07.733Z,10.40
2022-12-04T06:09:35.854Z,11.77
2022-12-04T06:12:05.948Z,10.85
2022-12-04T06:14:39.333Z,11.45
2022-12-04T06:17:07.729Z,12.05
2022-12-04T06:19:35.789Z,11.52
2022-12-04T06:22:03.907Z,11.20
2022-12-04T06:24:32.458Z,12.60
2022-12-04T06:29:50.464Z,13.98
2022-12-04T06:32:21.856Z,14.35
2022-12-04T06:34:52.830Z,13.57
2022-12-04T06:37:21.859Z,13.57
2022-12-04T06:39:49.929Z,15.05
2022-12-04T06:42:18.196Z,15.23
2022-12-04T06:44:51.983Z,15.50
2022-12-04T06:47:20.075Z,15.32
2022-12-04T06:49:50.782Z,16.73
2022-12-04T06:52:19.370Z,15.05
2022-12-04T06:54:47.512Z,16.77
2022-12-04T06:57:15.590Z,16.75
2022-12-04T06:59:43.690Z,16.05
2022-12-04T07:02:13.469Z,15.68
2022-12-04T07:04:41.685Z,14.88
2022-12-04T07:07:10.067Z,15.48
2022-12-04T07:09:38.379Z,14.50
2022-12-04T07:12:07.288Z,16.23
2022-12-04T07:14:35.355Z,15.73
2022-12-04T07:17:03.570Z,14.27
2022-12-04T07:19:33.056Z,12.98
2022-12-04T07:22:01.238Z,16.23
2022-12-04T07:24:29.387Z,14.60
2022-12-04T07:26:57.647Z,15.13
2022-12-04T07:29:25.807Z,16.08
2022-12-04T07:31:53.959Z,15.77
2022-12-04T07:34:22.043Z,14.75
2022-12-04T07:36:51.398Z,17.05
2022-12-04T07:39:19.433Z,21.23
2022-12-04T07:41:47.501Z,22.60
2022-12-04T07:44:16.342Z,15.70
2022-12-04T07:46:44.461Z,15.20
2022-12-04T07:49:13.813Z,15.75
2022-12-04T07:51:41.900Z,15.68
2022-12-04T07:54:11.403Z,16.40
2022-12-04T07:56:39.557Z,16.73
2022-12-04T07:59:07.642Z,15.82
2022-12-04T08:01:35.949Z,15.23
2022-12-04T08:04:04.488Z,16.45
2022-12-04T08:06:36.213Z,29.20
2022-12-04T08:09:09.827Z,18.23
2022-12-04T08:11:39.720Z,16.15
2022-12-04T08:14:09.674Z,18.77
2022-12-04T08:16:38.028Z,16.63
2022-12-04T08:19:06.244Z,16.25
2022-12-04T08:21:35.054Z,14.27
2022-12-04T08:24:03.706Z,15.93
2022-12-04T08:26:34.857Z,15.23
2022-12-04T08:29:06.077Z,15.20
2022-12-04T08:31:37.342Z,14.50
2022-12-04T08:34:08.669Z,15.95
2022-12-04T08:36:37.092Z,16.08
2022-12-04T08:39:05.325Z,15.10
2022-12-04T08:41:33.854Z,14.55
2022-12-04T08:44:02.047Z,15.73
2022-12-04T08:46:31.612Z,14.00
2022-12-04T08:48:59.849Z,16.88
2022-12-04T08:51:30.757Z,14.13
2022-12-04T08:54:01.316Z,14.70
2022-12-04T08:56:31.147Z,14.88
2022-12-04T08:59:00.022Z,14.40
2022-12-04T09:01:29.537Z,17.48
2022-12-04T09:03:59.246Z,17.65
2022-12-04T09:06:27.496Z,16.00
2022-12-04T09:08:56.697Z,20.08
2022-12-04T09:11:26.986Z,16.92
2022-12-04T09:13:55.808Z,18.33
2022-12-04T09:16:28.934Z,18.73
2022-12-04T09:18:58.634Z,18.17
2022-12-04T09:21:26.951Z,18.42
2022-12-04T09:23:55.062Z,15.82
2022-12-04T09:26:24.965Z,16.13
2022-12-04T09:28:53.652Z,15.15
2022-12-04T09:31:22.777Z,15.40
2022-12-04T09:33:50.996Z,16.05
2022-12-04T09:36:21.214Z,14.95
2022-12-04T09:38:51.041Z,14.77
2022-12-04T09:41:32.493Z,15.10
2022-12-04T09:44:03.883Z,14.02
2022-12-04T09:46:38.107Z,14.35
2022-12-04T09:49:12.803Z,15.10
2022-12-04T09:51:44.139Z,15.65
2022-12-04T09:54:18.023Z,14.68
2022-12-04T09:56:52.693Z,14.27
2022-12-04T09:59:24.683Z,12.20
2022-12-04T10:01:59.804Z,15.52
2022-12-04T10:07:04.841Z,14.75
2022-12-04T10:09:41.176Z,15.23
2022-12-04T10:12:21.274Z,16.42
2022-12-04T10:15:04.257Z,14.70
2022-12-04T10:18:03.389Z,15.25
2022-12-04T10:21:14.799Z,15.02
2022-12-04T10:23:56.269Z,15.88
2022-12-04T10:26:30.202Z,14.65
2022-12-04T10:29:02.682Z,16.40
2022-12-04T10:31:33.655Z,15.68
2022-12-04T10:34:06.792Z,16.67
2022-12-04T10:36:36.939Z,14.50
2022-12-04T10:39:12.582Z,15.80
2022-12-04T10:41:47.751Z,15.57
2022-12-04T10:44:17.977Z,15.43
2022-12-04T10:46:52.691Z,15.43
2022-12-04T10:49:27.197Z,17.25
2022-12-04T10:51:56.062Z,16.08
2022-12-04T10:54:32.887Z,16.38
2022-12-04T10:57:03.100Z,15.45
2022-12-04T10:59:32.328Z,15.50
2022-12-04T11:02:07.279Z,16.23
2022-12-04T11:07:08.093Z,17.42
2022-12-04T11:09:37.965Z,16.88
2022-12-04T11:12:08.941Z,17.02
2022-12-04T11:14:37.621Z,16.17
2022-12-04T11:17:07.660Z,17.58
2022-12-04T11:19:36.974Z,16.80
2022-12-04T11:22:12.247Z,15.68
2022-12-04T11:24:42.870Z,17.85
2022-12-04T11:27:20.919Z,17.00
2022-12-04T11:29:49.712Z,15.02
2022-12-04T11:32:23.402Z,16.92
2022-12-04T11:34:53.440Z,17.73
2022-12-04T11:37:26.225Z,17.63
2022-12-04T11:39:57.129Z,16.90
2022-12-04T11:42:29.531Z,17.05
2022-12-04T11:44:59.807Z,16.17
2022-12-04T11:47:31.086Z,18.38
2022-12-04T11:50:11.485Z,17.23
2022-12-04T11:53:04.972Z,17.33
2022-12-04T11:55:43.100Z,17.70
2022-12-04T11:58:46.424Z,17.33
2022-12-04T12:01:30.647Z,17.48
2022-12-04T12:04:17.807Z,18.30
2022-12-04T12:07:02.155Z,17.33
2022-12-04T12:09:39.346Z,18.27
2022-12-04T12:12:15.458Z,18.15
2022-12-04T12:14:52.044Z,17.30
2022-12-04T12:17:30.678Z,18.63
2022-12-04T12:20:14.919Z,17.23
2022-12-04T12:23:22.210Z,18.13
2022-12-04T12:26:00.039Z,17.38
2022-12-04T12:28:44.748Z,17.83
2022-12-04T12:31:30.231Z,15.17
2022-12-04T12:34:05.184Z,18.48
2022-12-04T12:36:43.894Z,17.33
2022-12-04T12:39:17.331Z,17.98
2022-12-04T12:41:56.937Z,16.58
2022-12-04T12:44:32.088Z,18.35
2022-12-04T12:49:33.431Z,17.48
2022-12-04T12:52:06.191Z,18.60
2022-12-04T12:54:44.249Z,17.95
2022-12-04T12:57:16.376Z,17.98
2022-12-04T12:59:49.970Z,17.80
2022-12-04T13:02:26.609Z,18.75
2022-12-04T13:04:59.967Z,16.88
2022-12-04T13:07:38.981Z,18.13
2022-12-04T13:10:14.177Z,17.92
2022-12-04T13:15:17.071Z,17.27
2022-12-04T13:17:47.181Z,17.75
2022-12-04T13:20:24.625Z,16.67
2022-12-04T13:23:10.165Z,17.33
2022-12-04T13:28:26.180Z,17.55
2022-12-04T13:31:02.503Z,17.00
2022-12-04T13:33:55.740Z,16.35
2022-12-04T13:36:44.682Z,15.57
2022-12-04T13:39:54.429Z,16.00
2022-12-04T13:42:25.626Z,17.45
2022-12-04T13:44:57.098Z,17.70
2022-12-04T13:47:32.916Z,16.67
2022-12-04T13:50:09.792Z,16.17
2022-12-04T13:52:41.181Z,15.32
2022-12-04T13:55:30.530Z,16.85
2022-12-04T13:58:00.723Z,17.65
2022-12-04T14:00:32.124Z,16.95
2022-12-04T14:03:04.641Z,16.58
2022-12-04T14:05:40.413Z,15.57
2022-12-04T14:08:22.268Z,16.95
2022-12-04T14:11:01.039Z,16.83
2022-12-04T14:13:36.817Z,15.77
2022-12-04T14:16:08.277Z,16.67
2022-12-04T14:18:39.152Z,16.60
2022-12-04T14:21:07.871Z,15.98
2022-12-04T14:23:41.029Z,16.02
2022-12-04T14:26:22.100Z,16.08
2022-12-04T14:28:51.465Z,16.33
2022-12-04T14:31:30.706Z,17.23
2022-12-04T14:34:03.967Z,16.00
2022-12-04T14:36:42.265Z,15.98
2022-12-04T14:39:25.922Z,15.75
2022-12-04T14:42:05.201Z,16.77
2022-12-04T14:44:33.874Z,15.88
2022-12-04T14:47:14.956Z,15.65
2022-12-04T14:50:02.406Z,17.40
2022-12-04T14:52:35.221Z,15.77
2022-12-04T14:55:12.892Z,16.70
2022-12-04T14:57:55.117Z,15.90
2022-12-04T15:00:25.505Z,17.23
2022-12-04T15:02:56.063Z,15.95
2022-12-04T15:05:28.205Z,15.65
2022-12-04T15:07:59.914Z,16.85
2022-12-04T15:10:47.658Z,16.30
2022-12-04T15:13:28.900Z,16.77
2022-12-04T15:15:57.749Z,17.02
2022-12-04T15:18:26.163Z,16.60
2022-12-04T15:20:59.665Z,17.13
2022-12-04T15:23:30.747Z,17.58
2022-12-04T15:26:01.626Z,17.67
2022-12-04T15:28:33.088Z,17.40
2022-12-04T15:31:04.879Z,16.25
2022-12-04T15:33:37.495Z,17.40
2022-12-04T15:36:13.770Z,16.83
2022-12-04T15:38:42.307Z,17.35
2022-12-04T15:41:31.637Z,16.85
2022-12-04T15:44:00.847Z,16.63
2022-12-04T15:46:33.573Z,17.02
2022-12-04T15:49:16.517Z,18.80
2022-12-04T15:51:48.704Z,17.40
2022-12-04T15:54:22.440Z,17.80
2022-12-04T15:57:00.578Z,18.08
2022-12-04T15:59:30.854Z,17.02
2022-12-04T16:02:08.901Z,20.55
2022-12-04T16:04:41.069Z,17.38
2022-12-04T16:09:59.527Z,17.90
2022-12-04T16:12:38.803Z,17.60
2022-12-04T16:15:10.069Z,18.27
2022-12-04T16:17:39.405Z,19.15
2022-12-04T16:20:11.030Z,17.05
2022-12-04T16:22:42.384Z,17.90
2022-12-04T16:25:12.613Z,18.67
2022-12-04T16:27:40.784Z,17.63
2022-12-04T16:30:10.927Z,18.45
2022-12-04T16:32:39.149Z,19.75
2022-12-04T16:35:08.051Z,19.13
2022-12-04T16:37:36.086Z,19.80
2022-12-04T16:40:06.837Z,19.85
2022-12-04T16:42:35.867Z,18.70
2022-12-04T16:45:04.842Z,20.15
2022-12-04T16:47:33.248Z,21.60
2022-12-04T16:50:01.546Z,18.88
2022-12-04T16:52:29.802Z,21.15
2022-12-04T16:55:03.091Z,20.10
2022-12-04T17:00:05.082Z,20.33
2022-12-04T17:02:34.009Z,20.40
2022-12-04T17:05:03.267Z,19.98
2022-12-04T17:07:32.242Z,20.08
2022-12-04T17:10:00.866Z,21.10
2022-12-04T17:12:29.490Z,23.77
2022-12-04T17:14:59.902Z,23.83
2022-12-04T17:17:28.422Z,23.60
2022-12-04T17:19:56.916Z,25.30
2022-12-04T17:22:26.667Z,27.00
2022-12-04T17:24:56.378Z,25.58
2022-12-04T17:27:25.730Z,25.27
2022-12-04T17:29:54.200Z,23.95
2022-12-04T17:32:24.091Z,23.23
2022-12-04T17:34:54.407Z,21.98
2022-12-04T17:37:24.234Z,23.70
2022-12-04T17:39:53.111Z,23.23
2022-12-04T17:42:34.944Z,23.52
2022-12-04T17:45:03.271Z,22.55
2022-12-04T17:47:33.157Z,23.58
2022-12-04T17:50:01.529Z,23.17
2022-12-04T17:52:30.655Z,22.70
2022-12-04T17:54:59.252Z,24.45
2022-12-04T17:57:28.795Z,25.42
2022-12-04T17:59:57.283Z,23.52
2022-12-04T18:02:26.200Z,22.27
2022-12-04T18:04:57.259Z,24.35
2022-12-04T18:07:25.833Z,25.05
2022-12-04T18:09:54.983Z,23.15
2022-12-04T18:12:23.498Z,24.77
2022-12-04T18:14:51.700Z,24.95
2022-12-04T18:17:20.897Z,24.88
2022-12-04T18:19:49.250Z,25.33
2022-12-04T18:22:19.249Z,26.63
2022-12-04T18:24:47.626Z,25.55
2022-12-04T18:27:16.263Z,25.67
2022-12-04T18:29:54.325Z,24.20
2022-12-04T18:32:23.200Z,25.25
2022-12-04T18:34:51.384Z,24.35
2022-12-04T18:37:21.349Z,24.80
2022-12-04T18:39:51.070Z,25.83
2022-12-04T18:42:19.269Z,27.00
2022-12-04T18:44:48.267Z,26.48
2022-12-04T18:47:16.470Z,27.13
2022-12-04T18:49:45.475Z,27.52
2022-12-04T18:52:13.892Z,30.52
2022-12-04T18:54:43.595Z,48.63
2022-12-04T18:57:11.602Z,35.58
2022-12-04T18:59:39.872Z,70.03
2022-12-04T19:02:08.304Z,168.55
2022-12-04T19:04:36.913Z,40.53
2022-12-04T19:07:05.737Z,114.05
2022-12-04T19:10:09.970Z,47.08
2022-12-04T19:12:24.299Z,29.20
2022-12-04T19:14:52.476Z,27.95
2022-12-04T19:17:22.418Z,90.95
2022-12-04T19:19:50.714Z,100.35
2022-12-04T19:22:22.153Z,31.92
2022-12-04T19:24:50.319Z,35.97
2022-12-04T19:27:18.227Z,30.48
2022-12-04T19:29:49.153Z,29.92
2022-12-04T19:32:17.629Z,33.10
2022-12-04T19:34:46.003Z,24.35
2022-12-04T19:37:14.626Z,27.45
2022-12-04T19:39:42.999Z,27.42
2022-12-04T19:42:11.560Z,24.10
2022-12-04T19:44:48.801Z,25.05
2022-12-04T19:47:19.279Z,27.67
2022-12-04T19:49:47.702Z,26.48
2022-12-04T19:52:16.347Z,25.92
2022-12-04T19:54:45.232Z,26.92
2022-12-04T19:57:20.159Z,27.75
2022-12-04T19:59:48.308Z,26.77
2022-12-04T20:02:19.688Z,26.65
2022-12-04T20:04:48.192Z,26.25
2022-12-04T20:07:16.494Z,30.02
2022-12-04T20:09:52.160Z,29.17
2022-12-04T20:12:20.944Z,26.13
2022-12-04T20:14:49.262Z,35.15
2022-12-04T20:17:18.927Z,40.28
2022-12-04T20:19:47.037Z,65.97
2022-12-04T20:22:15.020Z,121.13
2022-12-04T20:24:43.854Z,194.43
2022-12-04T20:27:12.260Z,115.55
2022-12-04T20:29:40.584Z,92.25
2022-12-04T20:32:08.962Z,28.73
2022-12-04T20:34:43.304Z,29.17
2022-12-04T20:37:12.270Z,27.85
2022-12-04T20:39:41.779Z,29.17
2022-12-04T20:42:16.754Z,28.15
2022-12-04T20:44:44.946Z,28.48
2022-12-04T20:47:13.334Z,29.45
2022-12-04T20:49:43.137Z,30.95
2022-12-04T20:52:11.382Z,31.88
2022-12-04T20:54:41.762Z,29.17
2022-12-04T20:57:11.699Z,28.08
2022-12-04T20:59:40.108Z,31.25
2022-12-04T21:02:08.899Z,28.08
2022-12-04T21:04:38.705Z,27.02
2022-12-04T21:07:08.557Z,28.52
2022-12-04T21:09:37.200Z,27.35
2022-12-04T21:12:27.352Z,27.27
2022-12-04T21:15:13.373Z,27.08
2022-12-04T21:17:41.934Z,28.48
2022-12-04T21:20:11.944Z,27.58
2022-12-04T21:22:41.790Z,26.45
2022-12-04T21:25:10.655Z,27.55
2022-12-04T21:27:39.443Z,26.38
2022-12-04T21:30:08.985Z,25.98
2022-12-04T21:32:37.201Z,26.88
2022-12-04T21:35:05.723Z,25.60
2022-12-04T21:37:34.469Z,26.10
2022-12-04T21:40:04.648Z,26.15
2022-12-04T21:42:32.966Z,26.30
2022-12-04T21:45:02.549Z,25.85
2022-12-04T21:47:31.946Z,27.02
2022-12-04T21:50:04.470Z,27.42
2022-12-04T21:52:33.323Z,26.45
2022-12-04T21:55:03.286Z,24.40
2022-12-04T21:57:31.654Z,24.85
2022-12-04T22:00:00.030Z,25.42
2022-12-04T22:05:40.571Z,26.13
2022-12-04T22:10:59.636Z,25.75
2022-12-04T22:13:28.187Z,25.60
2022-12-04T22:15:57.179Z,26.00
2022-12-04T22:18:36.039Z,26.02
2022-12-04T22:21:07.233Z,25.92
2022-12-04T22:23:36.409Z,25.55
2022-12-04T22:26:10.813Z,24.95
2022-12-04T22:28:39.894Z,25.80
2022-12-04T22:31:10.760Z,25.35
2022-12-04T22:33:39.319Z,26.80
2022-12-04T22:36:10.278Z,27.45
2022-12-04T22:38:58.648Z,28.05
2022-12-04T22:41:29.230Z,26.30
2022-12-04T22:44:01.361Z,26.08
2022-12-04T22:49:25.281Z,26.13
2022-12-04T22:51:53.448Z,26.10
2022-12-04T22:54:21.707Z,26.60
2022-12-04T22:56:51.279Z,26.33
2022-12-04T22:59:19.449Z,25.95
2022-12-04T23:01:47.925Z,28.15
2022-12-04T23:04:16.094Z,26.90
2022-12-04T23:06:44.372Z,27.02
2022-12-04T23:09:15.108Z,27.67
2022-12-04T23:11:43.989Z,27.15
2022-12-04T23:14:16.079Z,27.40
2022-12-04T23:16:44.399Z,27.23
2022-12-04T23:19:17.545Z,27.92
2022-12-04T23:21:49.652Z,26.88
2022-12-04T23:24:21.786Z,28.02
2022-12-04T23:26:49.927Z,27.10
2022-12-04T23:29:44.989Z,25.45
2022-12-04T23:32:07.962Z,26.73
2022-12-04T23:34:36.151Z,26.52
2022-12-04T23:37:04.471Z,27.45
2022-12-04T23:39:32.555Z,28.25
2022-12-04T23:42:03.435Z,26.52
2022-12-04T23:44:33.165Z,27.23
2022-12-04T23:47:01.473Z,25.42
2022-12-04T23:49:29.817Z,28.73
2022-12-04T23:51:57.861Z,29.30
2022-12-04T23:54:27.275Z,29.65
2022-12-04T23:56:55.434Z,28.75
2022-12-04T23:59:23.620Z,27.20
